Weather History for Henderson, KY

Change the Weather History Date:

Thursday, January 17, 2013

  Actual Average Record
Temperature  
Mean Temperature 36 °F -  
Max Temperature 44 °F 39 °F 69 °F (1952)
Min Temperature 28 °F 26 °F -15 °F (1977)
Degree Days  
Heating Degree Days 29    
Moisture  
Dew Point 21 °F    
Average Humidity 58    
Maximum Humidity 69    
Minimum Humidity 49    
Precipitation  
Precipitation 0.00 in - - ()
Sea Level Pressure  
Sea Level Pressure 30.26 in    
Wind  
Wind Speed 5 mph (North)    
Max Wind Speed 16 mph    
Max Gust Speed 24 mph    
Visibility 10 miles    
Events      
Averages and records for this station are not official NWS values.
T = Trace of Precipitation, MM = Missing Value Source: NWS Daily Summary

Daily Weather History Graph

Daily Weather History Graph

Search for Another Location

Airport:

Trip Planner

Search our weather history database for the weather conditions in past years. The results will help you decide how hot, cold, wet, or windy it might be!

Date:

Astronomy

Jan. 17, 2013 Rise Set
Actual Time 7:04 AM CST 4:58 PM CST
Civil Twilight 6:35 AM CST 5:26 PM CST
Nautical Twilight 6:03 AM CST 5:58 PM CST
Astronomical Twilight 5:32 AM CST 6:30 PM CST
Moon 10:18 AM CST (1/17) 11:40 PM CST (1/17)
Length of Visible Light 10h 51m
Length of Day
9h 53m
Waxing Crescent, 38% of the Moon is Illuminated
Jan 17
Waxing Crescent
Jan 18
First Quarter
Jan 26
Full
Feb 3
Last Quarter
Feb 10
New

Hourly Weather History & Observations

Time (CST) Temp. Windchill Dew Point Humidity Pressure Visibility Wind Dir Wind Speed Gust Speed Precip Events Conditions
12:15 AM 30.2 °F - 19.4 °F 64% 30.15 in 10.0 mi Calm Calm - N/A   Clear
12:35 AM 30.2 °F 26.7 °F 19.4 °F 64% 30.15 in 10.0 mi South 3.5 mph - N/A   Clear
12:55 AM 30.2 °F - 19.4 °F 64% 30.15 in 10.0 mi Calm Calm - N/A   Clear
1:15 AM 28.4 °F - 19.4 °F 69% 30.15 in 10.0 mi Calm Calm - N/A   Clear
1:35 AM 28.4 °F - 19.4 °F 69% 30.15 in 10.0 mi Calm Calm - N/A   Partly Cloudy
1:55 AM 28.4 °F - 19.4 °F 69% 30.16 in 10.0 mi Calm Calm - N/A   Clear
2:15 AM 28.4 °F - 19.4 °F 69% 30.15 in 10.0 mi Calm Calm - N/A   Clear
2:35 AM 28.4 °F - 19.4 °F 69% 30.16 in 10.0 mi Calm Calm - N/A   Clear
2:55 AM 28.4 °F - 19.4 °F 69% 30.16 in 10.0 mi Calm Calm - N/A   Mostly Cloudy
3:35 AM 30.2 °F - 21.2 °F 69% 30.15 in 10.0 mi Calm Calm - N/A   Overcast
3:55 AM 30.2 °F - 21.2 °F 69% 30.16 in 10.0 mi Calm Calm - N/A   Overcast
4:15 AM 30.2 °F - 21.2 °F 69% 30.15 in 10.0 mi Calm Calm - N/A   Overcast
4:35 AM 30.2 °F 26.7 °F 21.2 °F 69% 30.16 in 10.0 mi NW 3.5 mph - N/A   Overcast
4:55 AM 30.2 °F 24.3 °F 21.2 °F 69% 30.16 in 10.0 mi NNW 5.8 mph - N/A   Overcast
5:15 AM 30.2 °F 25.4 °F 19.4 °F 64% 30.15 in 10.0 mi North 4.6 mph - N/A   Scattered Clouds
5:35 AM 30.2 °F 24.3 °F 17.6 °F 60% 30.14 in 10.0 mi North 5.8 mph - N/A   Clear
5:55 AM 30.2 °F 24.3 °F 17.6 °F 60% 30.13 in 10.0 mi North 5.8 mph - N/A   Clear
6:15 AM 30.2 °F 24.3 °F 17.6 °F 60% 30.14 in 10.0 mi North 5.8 mph - N/A   Clear
6:35 AM 32.0 °F - 17.6 °F 55% 30.16 in 10.0 mi Calm Calm - N/A   Clear
6:55 AM 32.0 °F 27.5 °F 19.4 °F 60% 30.18 in 10.0 mi North 4.6 mph - N/A   Clear
7:15 AM 32.0 °F 26.4 °F 19.4 °F 60% 30.19 in 10.0 mi North 5.8 mph - N/A   Clear
7:35 AM 32.0 °F 28.7 °F 19.4 °F 60% 30.20 in 10.0 mi NE 3.5 mph - N/A   Clear
7:55 AM 30.2 °F 25.4 °F 17.6 °F 60% 30.21 in 10.0 mi North 4.6 mph - N/A   Clear
8:15 AM 33.8 °F 30.8 °F 21.2 °F 60% 30.22 in 10.0 mi NNE 3.5 mph - N/A   Clear
8:35 AM 33.8 °F 28.6 °F 21.2 °F 60% 30.23 in 10.0 mi NNE 5.8 mph - N/A   Clear
8:55 AM 35.6 °F 30.7 °F 21.2 °F 56% 30.24 in 10.0 mi NE 5.8 mph - N/A   Clear
9:15 AM 35.6 °F 28.6 °F 21.2 °F 56% 30.24 in 10.0 mi NNE 9.2 mph - N/A   Clear
9:35 AM 35.6 °F 28.6 °F 21.2 °F 56% 30.24 in 10.0 mi North 9.2 mph - N/A   Clear
9:55 AM 37.4 °F 30.3 °F 21.2 °F 52% 30.24 in 10.0 mi North 10.4 mph - N/A   Clear
10:15 AM 37.4 °F 29.8 °F 23.0 °F 56% 30.23 in 10.0 mi North 11.5 mph - N/A   Clear
10:35 AM 39.2 °F 32.0 °F 23.0 °F 52% 30.22 in 10.0 mi NNE 11.5 mph - N/A   Clear
10:55 AM 41.0 °F 34.3 °F 24.8 °F 53% 30.22 in 10.0 mi NNE 11.5 mph - N/A   Clear
11:15 AM 41.0 °F 34.3 °F 26.6 °F 57% 30.21 in 10.0 mi North 11.5 mph - N/A   Clear
11:35 AM 42.8 °F 38.0 °F 26.6 °F 53% 30.21 in 10.0 mi North 8.1 mph - N/A   Clear
11:55 AM 42.8 °F 37.0 °F 26.6 °F 53% 30.20 in 10.0 mi North 10.4 mph - N/A   Clear
12:15 PM 42.8 °F 37.0 °F 28.4 °F 57% 30.19 in 10.0 mi NNW 10.4 mph - N/A   Clear
12:35 PM 44.6 °F 38.8 °F 28.4 °F 53% 30.18 in 10.0 mi North 11.5 mph 18.4 mph N/A   Partly Cloudy
12:55 PM 44.6 °F 38.1 °F 28.4 °F 53% 30.18 in 10.0 mi North 13.8 mph 19.6 mph N/A   Scattered Clouds
1:15 PM 44.6 °F 39.2 °F 28.4 °F 53% 30.19 in 10.0 mi NNW 10.4 mph 19.6 mph N/A   Mostly Cloudy
1:35 PM 44.6 °F 37.8 °F 28.4 °F 53% 30.19 in 10.0 mi NNW 15.0 mph 21.9 mph N/A   Mostly Cloudy
1:55 PM 44.6 °F 37.8 °F 30.2 °F 57% 30.20 in 10.0 mi NNW 15.0 mph 20.7 mph N/A   Mostly Cloudy
2:15 PM 44.6 °F 37.8 °F 28.4 °F 53% 30.21 in 10.0 mi NNW 15.0 mph 19.6 mph N/A   Scattered Clouds
2:35 PM 44.6 °F 38.1 °F 26.6 °F 49% 30.21 in 10.0 mi North 13.8 mph 20.7 mph N/A   Scattered Clouds
2:55 PM 42.8 °F 36.2 °F 26.6 °F 53% 30.23 in 10.0 mi North 12.7 mph 18.4 mph N/A   Scattered Clouds
3:15 PM 42.8 °F 35.1 °F 24.8 °F 49% 30.25 in 10.0 mi NNW 16.1 mph 24.2 mph N/A   Scattered Clouds
3:35 PM 41.0 °F 33.1 °F 24.8 °F 53% 30.26 in 10.0 mi NNW 15.0 mph 20.7 mph N/A   Partly Cloudy
3:55 PM 39.2 °F 30.5 °F 21.2 °F 49% 30.28 in 10.0 mi NNW 16.1 mph 21.9 mph N/A   Clear
4:15 PM 39.2 °F 32.0 °F 23.0 °F 52% 30.29 in 10.0 mi NNW 11.5 mph 19.6 mph N/A   Partly Cloudy
4:35 PM 37.4 °F 29.8 °F 24.8 °F 60% 30.30 in 10.0 mi NNW 11.5 mph 17.3 mph N/A   Mostly Cloudy
4:55 PM 37.4 °F 29.8 °F 23.0 °F 56% 30.32 in 10.0 mi NNW 11.5 mph - N/A   Mostly Cloudy
5:15 PM 37.4 °F 29.8 °F 21.2 °F 52% 30.34 in 10.0 mi NNW 11.5 mph - N/A   Partly Cloudy
5:35 PM 35.6 °F 29.2 °F 21.2 °F 56% 30.35 in 10.0 mi NW 8.1 mph - N/A   Clear
5:55 PM 35.6 °F 29.9 °F 21.2 °F 56% 30.36 in 10.0 mi NW 6.9 mph - N/A   Clear
6:15 PM 35.6 °F 29.9 °F 21.2 °F 56% 30.37 in 10.0 mi NNW 6.9 mph - N/A   Clear
6:35 PM 35.6 °F 29.2 °F 21.2 °F 56% 30.38 in 10.0 mi NNW 8.1 mph - N/A   Clear
6:55 PM 35.6 °F 28.6 °F 19.4 °F 52% 30.40 in 10.0 mi NNW 9.2 mph - N/A   Clear
7:15 PM 33.8 °F 26.4 °F 21.2 °F 60% 30.41 in 10.0 mi NNW 9.2 mph - N/A   Clear
7:35 PM 33.8 °F 27.0 °F 19.4 °F 56% 30.41 in 10.0 mi NNW 8.1 mph - N/A   Clear
7:55 PM 33.8 °F 27.7 °F 19.4 °F 56% 30.43 in 10.0 mi NNW 6.9 mph - N/A   Clear
8:15 PM 33.8 °F 27.0 °F 19.4 °F 56% 30.44 in 10.0 mi NNW 8.1 mph - N/A   Clear
8:55 PM 33.8 °F 27.0 °F 17.6 °F 52% 30.46 in 10.0 mi North 8.1 mph - N/A   Clear
9:15 PM 33.8 °F 28.6 °F 17.6 °F 52% 30.46 in 10.0 mi North 5.8 mph - N/A   Clear
9:35 PM 32.0 °F 25.6 °F 17.6 °F 55% 30.46 in 10.0 mi NNW 6.9 mph - N/A   Clear
9:55 PM 32.0 °F 26.4 °F 17.6 °F 55% 30.46 in 10.0 mi NNW 5.8 mph - N/A   Clear
10:15 PM 30.2 °F 24.3 °F 17.6 °F 60% 30.47 in 10.0 mi NNW 5.8 mph - N/A   Clear
10:35 PM 30.2 °F 25.4 °F 17.6 °F 60% 30.47 in 10.0 mi North 4.6 mph - N/A   Clear
10:55 PM 30.2 °F 26.7 °F 17.6 °F 60% 30.47 in 10.0 mi NNW 3.5 mph - N/A   Clear
11:15 PM 28.4 °F 22.2 °F 15.8 °F 59% 30.48 in 10.0 mi NW 5.8 mph - N/A   Clear
11:35 PM 28.4 °F 21.2 °F 17.6 °F 64% 30.49 in 10.0 mi NNW 6.9 mph - N/A   Clear
11:55 PM 28.4 °F 22.2 °F 17.6 °F 64% 30.49 in 10.0 mi NNW 5.8 mph - N/A   Clear